Time;durP1;ratioP1;P1;durP2;ratioP2;P2;SDS_P1;SDS_P2;PMS_P1;PMS_P2;Temp;Humidity;BMP_temperature;BMP_pressure;BME280_temperature;BME280_humidity;BME280_pressure;Samples;Min_cycle;Max_cycle;Signal;HPM_P1;HPM_P2
2022/01/24 12:24:21;;;;;;;1.73;1.63;;;;;;;7.20;71.57;100647.50;6312332;22;1450349;-85
2022/01/24 12:26:51;;;;;;;2.77;2.10;;;;;;;7.48;70.14;100653.97;6314557;22;38708;-83
2022/01/24 12:29:21;;;;;;;1.50;1.40;;;;;;;7.57;69.12;100653.75;6322988;22;41903;-85
2022/01/24 12:31:52;;;;;;;1.60;1.50;;;;;;;7.65;68.92;100647.47;6297329;22;43067;-84
2022/01/24 12:34:24;;;;;;;2.27;1.60;;;;;;;7.82;68.86;100647.94;6322620;22;42085;-85
2022/01/24 12:37:04;;;;;;;1.70;1.60;;;;;;;7.79;68.83;100632.19;6323141;22;38859;-85
2022/01/24 12:39:45;;;;;;;4.80;2.33;;;;;;;7.82;68.34;100637.38;6350996;22;41804;-87
2022/01/24 12:42:19;;;;;;;2.77;2.50;;;;;;;7.81;67.59;100638.28;6321845;22;41710;-89
2022/01/24 12:47:37;;;;;;;3.20;2.20;;;;;;;7.81;67.93;100623.31;6323093;22;39771;-87
2022/01/24 12:50:10;;;;;;;4.80;2.97;;;;;;;7.92;68.07;100645.03;6320720;22;40741;-86
2022/01/24 12:52:39;;;;;;;2.33;2.13;;;;;;;7.96;68.00;100643.22;6322400;22;43521;-87
2022/01/24 12:55:10;;;;;;;2.20;2.00;;;;;;;7.90;67.60;100620.50;6323100;22;41321;-88
2022/01/24 12:57:43;;;;;;;2.10;1.63;;;;;;;7.95;67.18;100628.28;6322619;22;40573;-87
2022/01/24 13:00:13;;;;;;;3.10;2.03;;;;;;;7.90;67.16;100614.34;6322862;22;40850;-88
2022/01/24 13:02:41;;;;;;;4.50;2.20;;;;;;;7.93;66.87;100635.38;6319875;22;42812;-89
2022/01/24 13:05:11;;;;;;;2.53;2.33;;;;;;;7.90;67.02;100624.91;6321030;22;41549;-89
2022/01/24 13:07:41;;;;;;;4.37;2.57;;;;;;;7.71;67.02;100586.66;6321138;22;39193;-88
2022/01/24 13:10:14;;;;;;;3.37;2.73;;;;;;;7.71;66.94;100591.94;6320539;22;41835;-84
2022/01/24 13:12:44;;;;;;;4.77;2.37;;;;;;;7.88;66.64;100622.31;6319909;22;41866;-85
2022/01/24 13:15:27;;;;;;;2.73;2.40;;;;;;;7.91;67.05;100624.00;6321574;22;42274;-86
2022/01/24 13:23:44;;;;;;;4.13;2.07;;;;;;;7.85;66.00;100622.38;6230281;22;43003;-86
2022/01/24 13:26:14;;;;;;;2.13;1.93;;;;;;;7.84;66.10;100619.75;6313861;22;43340;-88
2022/01/24 13:28:42;;;;;;;2.27;1.93;;;;;;;7.82;66.41;100613.66;6314438;22;39180;-88
2022/01/24 13:31:10;;;;;;;3.47;2.63;;;;;;;7.90;66.49;100619.63;6339871;22;41911;-85
2022/01/24 13:33:41;;;;;;;3.23;2.40;;;;;;;7.91;66.10;100622.19;6313626;22;42717;-84
2022/01/24 13:36:09;;;;;;;2.77;2.57;;;;;;;7.85;66.11;100613.59;6313253;22;41107;-85
2022/01/24 13:38:45;;;;;;;2.43;2.20;;;;;;;7.87;66.28;100620.56;6313552;22;40665;-86
2022/01/24 13:41:16;;;;;;;2.87;2.00;;;;;;;7.84;66.25;100603.94;6313671;22;41982;-85
2022/01/24 13:43:53;;;;;;;3.50;2.50;;;;;;;7.86;66.28;100603.00;6314045;22;41851;-84
2022/01/24 13:46:22;;;;;;;3.23;1.97;;;;;;;8.01;66.54;100622.88;6312838;22;42555;-85
2022/01/24 13:48:52;;;;;;;4.53;2.30;;;;;;;7.99;66.48;100610.63;6314019;22;38814;-86
2022/01/24 13:51:22;;;;;;;3.57;2.43;;;;;;;7.99;65.97;100616.78;6313134;22;41243;-84
2022/01/24 13:53:55;;;;;;;2.40;2.20;;;;;;;8.07;66.14;100635.03;6313044;22;43273;-84
2022/01/24 13:56:28;;;;;;;2.67;2.47;;;;;;;7.69;65.60;100577.91;6313892;22;41277;-83
2022/01/24 13:59:07;;;;;;;3.30;2.47;;;;;;;7.86;65.63;100615.31;6315073;22;38989;-90
2022/01/24 14:01:35;;;;;;;2.93;2.23;;;;;;;7.85;65.61;100621.50;6314224;22;40818;-84
2022/01/24 14:04:05;;;;;;;2.47;2.23;;;;;;;7.90;65.64;100632.81;6313644;22;41581;-84
2022/01/24 14:06:33;;;;;;;2.33;2.13;;;;;;;7.87;66.05;100624.97;6340069;22;42933;-85
2022/01/24 14:09:10;;;;;;;3.60;1.70;;;;;;;7.89;66.06;100625.81;6313406;22;40129;-85
2022/01/24 14:11:44;;;;;;;5.77;2.30;;;;;;;7.69;65.70;100596.38;6314081;22;40769;-85
2022/01/24 14:14:16;;;;;;;2.30;2.10;;;;;;;7.82;65.89;100616.28;6313614;22;42886;-85
2022/01/24 14:16:58;;;;;;;3.17;2.40;;;;;;;7.76;65.77;100605.88;6314364;22;41443;-85
2022/01/24 14:19:30;;;;;;;2.93;2.43;;;;;;;7.68;65.70;100597.28;6314146;22;40282;-85
2022/01/24 14:22:03;;;;;;;5.47;2.40;;;;;;;7.80;66.15;100624.22;6313093;22;42181;-86
2022/01/24 14:24:45;;;;;;;3.27;2.40;;;;;;;7.84;65.92;100625.03;6287770;22;41928;-87
2022/01/24 14:27:14;;;;;;;5.77;2.40;;;;;;;7.77;66.22;100615.53;6313518;22;41986;-88
2022/01/24 14:29:42;;;;;;;3.73;3.20;;;;;;;7.83;66.19;100624.16;6338721;22;39170;-87
2022/01/24 14:32:15;;;;;;;4.23;2.57;;;;;;;7.60;66.19;100588.66;6313443;22;40744;-89
2022/01/24 14:34:42;;;;;;;2.70;2.13;;;;;;;7.72;66.25;100604.22;6313496;22;41478;-89
2022/01/24 14:37:10;;;;;;;3.70;2.47;;;;;;;7.77;66.37;100623.44;6313111;22;41307;-85
2022/01/24 14:39:47;;;;;;;3.63;3.27;;;;;;;7.66;66.31;100593.81;6311419;22;38858;-86
2022/01/24 14:42:32;;;;;;;3.93;2.33;;;;;;;7.72;66.13;100604.22;6313321;22;41675;-85
2022/01/24 14:45:00;;;;;;;2.80;2.50;;;;;;;7.72;66.32;100606.84;6313564;22;41602;-89
2022/01/24 14:47:28;;;;;;;3.67;2.63;;;;;;;7.67;66.65;100599.03;6312563;22;41321;-88
2022/01/24 14:49:55;;;;;;;3.00;2.30;;;;;;;7.54;66.60;100574.72;6313550;22;40489;-87
2022/01/24 14:52:26;;;;;;;5.03;3.00;;;;;;;7.56;66.47;100588.72;6311112;22;41462;-85
